createdAt,value
2023-01-19T00:01:26.777Z,99520.00
2023-01-19T00:03:54.069Z,99511.11
2023-01-19T00:06:21.350Z,99503.04
2023-01-19T00:08:52.094Z,99505.47
2023-01-19T00:11:19.491Z,99506.73
2023-01-19T00:13:50.375Z,99504.63
2023-01-19T00:19:36.064Z,99516.20
2023-01-19T00:22:05.679Z,99527.45
2023-01-19T00:24:33.252Z,99536.55
2023-01-19T00:27:03.358Z,99546.84
2023-01-19T00:29:33.122Z,99546.86
2023-01-19T00:32:01.410Z,99541.20
2023-01-19T00:34:37.817Z,99530.13
2023-01-19T00:37:09.367Z,99521.66
2023-01-19T00:39:37.085Z,99518.34
2023-01-19T00:42:23.595Z,99524.21
2023-01-19T00:44:50.903Z,99531.94
2023-01-19T00:47:18.877Z,99538.23
2023-01-19T00:49:46.182Z,99529.97
2023-01-19T00:52:13.466Z,99520.63
2023-01-19T00:54:40.620Z,99521.77
2023-01-19T00:57:08.140Z,99522.60
2023-01-19T00:59:35.509Z,99521.92
2023-01-19T01:02:03.043Z,99528.82
2023-01-19T01:04:30.935Z,99525.27
2023-01-19T01:06:58.392Z,99527.86
2023-01-19T01:09:27.897Z,99531.77
2023-01-19T01:11:56.718Z,99533.40
2023-01-19T01:14:24.127Z,99540.67
2023-01-19T01:16:51.994Z,99538.59
2023-01-19T01:19:19.850Z,99536.00
2023-01-19T01:21:47.239Z,99542.33
2023-01-19T01:24:14.710Z,99547.51
2023-01-19T01:26:42.217Z,99547.70
2023-01-19T01:29:09.600Z,99548.98
2023-01-19T01:31:37.130Z,99552.70
2023-01-19T01:34:04.736Z,99564.34
2023-01-19T01:36:33.206Z,99560.56
2023-01-19T01:39:01.071Z,99552.94
2023-01-19T01:41:29.138Z,99557.78
2023-01-19T01:44:01.966Z,99560.50
2023-01-19T01:46:31.804Z,99565.27
2023-01-19T01:49:04.835Z,99575.59
2023-01-19T01:51:39.247Z,99584.33
2023-01-19T01:54:29.875Z,99581.27
2023-01-19T01:57:02.077Z,99575.48
2023-01-19T01:59:34.452Z,99572.82
2023-01-19T02:02:23.648Z,99570.73
2023-01-19T02:04:56.634Z,99562.92
2023-01-19T02:07:48.315Z,99555.97
2023-01-19T02:10:34.280Z,99558.82
2023-01-19T02:13:21.555Z,99561.97
2023-01-19T02:15:54.971Z,99572.98
2023-01-19T02:18:23.856Z,99576.48
2023-01-19T02:21:26.015Z,99586.35
2023-01-19T02:23:54.681Z,99581.60
2023-01-19T02:26:38.850Z,99577.41
2023-01-19T02:29:25.030Z,99585.15
2023-01-19T02:31:55.374Z,99587.11
2023-01-19T02:34:23.210Z,99589.45
2023-01-19T02:37:06.590Z,99596.54
2023-01-19T02:39:45.730Z,99594.98
2023-01-19T02:42:25.588Z,99590.99
2023-01-19T02:44:54.324Z,99590.23
2023-01-19T02:47:22.611Z,99586.45
2023-01-19T02:50:00.106Z,99579.41
2023-01-19T02:52:28.758Z,99573.61
2023-01-19T02:55:15.140Z,99568.73
2023-01-19T02:58:07.001Z,99561.71
2023-01-19T03:01:17.647Z,99550.23
2023-01-19T03:03:57.858Z,99555.03
2023-01-19T03:06:47.946Z,99563.63
2023-01-19T03:09:38.184Z,99582.84
2023-01-19T03:12:25.703Z,99577.23
2023-01-19T03:14:55.641Z,99579.85
2023-01-19T03:17:23.174Z,99577.07
2023-01-19T03:19:51.094Z,99568.48
2023-01-19T03:22:23.992Z,99570.52
2023-01-19T03:24:52.154Z,99572.63
2023-01-19T03:27:31.022Z,99578.61
2023-01-19T03:30:05.529Z,99586.02
2023-01-19T03:32:37.041Z,99592.90
2023-01-19T03:35:07.111Z,99592.15
2023-01-19T03:37:34.609Z,99591.63
2023-01-19T03:40:04.228Z,99585.36
2023-01-19T03:42:34.207Z,99592.68
2023-01-19T03:45:03.511Z,99599.73
2023-01-19T03:47:32.026Z,99600.55
2023-01-19T03:49:59.907Z,99606.61
2023-01-19T03:52:35.765Z,99605.16
2023-01-19T03:55:04.667Z,99610.64
2023-01-19T03:57:33.935Z,99613.73
2023-01-19T04:00:01.805Z,99620.60
2023-01-19T04:02:40.237Z,99617.77
2023-01-19T04:05:09.004Z,99612.88
2023-01-19T04:07:36.981Z,99608.84
2023-01-19T04:10:05.436Z,99605.23
2023-01-19T04:12:34.552Z,99611.02
2023-01-19T04:15:03.232Z,99608.81
2023-01-19T04:17:31.820Z,99609.27
2023-01-19T04:20:00.540Z,99612.47
2023-01-19T04:22:32.735Z,99622.67
2023-01-19T04:25:00.828Z,99622.17
2023-01-19T04:27:28.696Z,99618.83
2023-01-19T04:29:56.854Z,99617.75
2023-01-19T04:32:24.593Z,99621.05
2023-01-19T04:34:51.949Z,99628.51
2023-01-19T04:37:20.667Z,99630.04
2023-01-19T04:39:48.619Z,99637.64
2023-01-19T04:42:16.821Z,99635.07
2023-01-19T04:44:44.990Z,99626.92
2023-01-19T04:47:14.618Z,99619.80
2023-01-19T04:49:42.067Z,99619.09
2023-01-19T04:52:12.897Z,99621.00
2023-01-19T04:54:40.420Z,99619.28
2023-01-19T04:57:08.035Z,99622.68
2023-01-19T04:59:38.695Z,99618.84
2023-01-19T05:02:06.264Z,99617.86
2023-01-19T05:04:33.799Z,99615.41
2023-01-19T05:07:01.430Z,99613.70
2023-01-19T05:09:29.335Z,99613.65
2023-01-19T05:11:58.770Z,99615.83
2023-01-19T05:14:27.165Z,99618.45
2023-01-19T05:16:55.200Z,99619.58
2023-01-19T05:19:23.509Z,99620.73
2023-01-19T05:21:51.059Z,99624.14
2023-01-19T05:24:19.864Z,99621.17
2023-01-19T05:26:47.545Z,99620.42
2023-01-19T05:29:15.703Z,99615.10
2023-01-19T05:31:43.644Z,99616.44
2023-01-19T05:34:12.572Z,99627.71
2023-01-19T05:36:41.254Z,99631.00
2023-01-19T05:39:08.855Z,99632.52
2023-01-19T05:41:37.122Z,99633.06
2023-01-19T05:44:04.682Z,99629.16
2023-01-19T05:46:34.283Z,99620.95
2023-01-19T05:49:04.881Z,99622.72
2023-01-19T05:51:37.887Z,99629.93
2023-01-19T05:54:07.738Z,99626.27
2023-01-19T05:56:39.230Z,99622.46
2023-01-19T05:59:07.097Z,99623.25
2023-01-19T06:01:38.931Z,99622.44
2023-01-19T06:04:08.678Z,99613.69
2023-01-19T06:06:36.533Z,99620.92
2023-01-19T06:09:04.501Z,99634.77
2023-01-19T06:11:32.297Z,99643.13
2023-01-19T06:14:00.040Z,99646.48
2023-01-19T06:16:28.521Z,99641.95
2023-01-19T06:18:56.887Z,99634.61
2023-01-19T06:21:25.266Z,99629.64
2023-01-19T06:23:53.449Z,99647.00
2023-01-19T06:26:21.207Z,99649.92
2023-01-19T06:28:51.021Z,99635.51
2023-01-19T06:31:18.758Z,99615.19
2023-01-19T06:33:46.602Z,99604.79
2023-01-19T06:36:17.721Z,99585.55
2023-01-19T06:38:46.300Z,99573.11
2023-01-19T06:41:13.978Z,99566.04
2023-01-19T06:43:42.246Z,99559.51
2023-01-19T06:46:09.827Z,99554.78
2023-01-19T06:48:37.468Z,99550.80
2023-01-19T06:51:06.423Z,99548.92
2023-01-19T06:53:39.797Z,99559.34
2023-01-19T06:56:09.355Z,99561.17
2023-01-19T06:58:38.084Z,99558.16
2023-01-19T07:01:06.687Z,99560.22
2023-01-19T07:03:35.839Z,99559.41
2023-01-19T07:06:06.387Z,99564.73
2023-01-19T07:08:36.505Z,99562.04
2023-01-19T07:11:24.564Z,99559.75
2023-01-19T07:13:55.792Z,99546.88
2023-01-19T07:16:24.079Z,99543.83
2023-01-19T07:18:52.585Z,99546.42
2023-01-19T07:21:21.783Z,99545.59
2023-01-19T07:23:51.918Z,99550.63
2023-01-19T07:26:21.164Z,99554.45
2023-01-19T07:28:51.417Z,99553.80
2023-01-19T07:31:19.701Z,99552.98
2023-01-19T07:33:47.459Z,99553.39
2023-01-19T07:36:16.838Z,99554.44
2023-01-19T07:38:45.544Z,99552.83
2023-01-19T07:41:13.837Z,99546.80
2023-01-19T07:43:41.687Z,99537.61
2023-01-19T07:46:10.809Z,99544.79
2023-01-19T07:48:39.381Z,99545.25
2023-01-19T07:51:12.891Z,99540.71
2023-01-19T07:53:41.995Z,99535.30
2023-01-19T07:56:10.548Z,99526.84
2023-01-19T07:58:39.433Z,99533.73
2023-01-19T08:01:09.086Z,99540.28
2023-01-19T08:03:39.170Z,99536.80
2023-01-19T08:06:07.808Z,99532.66
2023-01-19T08:08:36.967Z,99531.70
2023-01-19T08:11:05.828Z,99529.13
2023-01-19T08:13:33.703Z,99534.29
2023-01-19T08:16:02.333Z,99535.44
2023-01-19T08:18:30.868Z,99546.45
2023-01-19T08:21:00.490Z,99541.45
2023-01-19T08:23:28.339Z,99545.93
2023-01-19T08:25:56.406Z,99556.17
2023-01-19T08:28:24.915Z,99564.36
2023-01-19T08:30:56.262Z,99563.31
2023-01-19T08:33:25.538Z,99558.90
2023-01-19T08:35:53.940Z,99571.78
2023-01-19T08:38:22.701Z,99559.13
2023-01-19T08:40:51.367Z,99554.48
2023-01-19T08:43:20.684Z,99560.17
2023-01-19T08:45:52.739Z,99558.61
2023-01-19T08:48:24.627Z,99551.33
2023-01-19T08:50:53.007Z,99552.42
2023-01-19T08:53:23.224Z,99554.46
2023-01-19T08:55:57.218Z,99563.79
2023-01-19T08:58:25.702Z,99560.89
2023-01-19T09:00:54.257Z,99556.23
2023-01-19T09:03:25.872Z,99544.59
2023-01-19T09:05:53.701Z,99542.99
2023-01-19T09:08:21.260Z,99548.84
2023-01-19T09:10:51.189Z,99547.80
2023-01-19T09:13:19.854Z,99543.17
2023-01-19T09:15:49.880Z,99543.16
2023-01-19T09:18:19.585Z,99539.70
2023-01-19T09:20:49.101Z,99539.94
2023-01-19T09:23:20.268Z,99550.15
2023-01-19T09:25:48.008Z,99549.10
2023-01-19T09:28:17.107Z,99551.73
2023-01-19T09:30:44.490Z,99548.46
2023-01-19T09:33:14.620Z,99538.79
2023-01-19T09:35:43.061Z,99527.11
2023-01-19T09:38:11.423Z,99525.77
2023-01-19T09:40:49.348Z,99530.23
2023-01-19T09:43:18.899Z,99530.07
2023-01-19T09:45:58.367Z,99522.66
2023-01-19T09:48:47.846Z,99515.77
2023-01-19T09:51:31.703Z,99514.48
2023-01-19T09:54:08.212Z,99509.31
2023-01-19T09:56:36.531Z,99503.73
2023-01-19T09:59:18.334Z,99500.03
2023-01-19T10:01:59.701Z,99488.85
2023-01-19T10:04:33.097Z,99485.75
2023-01-19T10:07:10.192Z,99482.09
2023-01-19T13:58:28.042Z,99427.80
2023-01-19T14:00:56.520Z,99443.75
2023-01-19T14:03:24.109Z,99440.23
2023-01-19T14:05:52.866Z,99440.65
2023-01-19T14:08:21.467Z,99434.66
2023-01-19T14:10:55.992Z,99428.97
2023-01-19T14:13:26.022Z,99424.84
2023-01-19T14:15:56.074Z,99428.37
2023-01-19T14:18:33.329Z,99427.13
2023-01-19T14:21:08.625Z,99424.83
2023-01-19T14:23:47.565Z,99419.56
2023-01-19T14:26:45.842Z,99422.64
2023-01-19T14:29:36.109Z,99423.90
2023-01-19T14:32:09.964Z,99424.13
2023-01-19T14:34:41.193Z,99423.23
2023-01-19T14:37:22.289Z,99419.92
2023-01-19T14:40:14.632Z,99419.48
2023-01-19T14:42:42.117Z,99423.88
2023-01-19T14:45:36.894Z,99427.32
2023-01-19T14:48:28.950Z,99428.54
2023-01-19T14:51:03.958Z,99425.16
2023-01-19T14:53:36.709Z,99430.64
2023-01-19T14:56:05.312Z,99434.75
2023-01-19T14:58:33.994Z,99440.39
2023-01-19T15:01:01.686Z,99443.98
2023-01-19T15:03:43.434Z,99439.59
2023-01-19T15:06:19.717Z,99439.97
2023-01-19T15:08:48.590Z,99438.00
2023-01-19T15:11:21.890Z,99442.38
2023-01-19T15:13:49.680Z,99443.63
2023-01-19T15:16:17.348Z,99437.52
2023-01-19T15:18:44.814Z,99432.89
2023-01-19T15:21:15.145Z,99428.04
2023-01-19T15:23:42.770Z,99426.05
2023-01-19T15:26:12.703Z,99420.54
2023-01-19T15:28:40.243Z,99422.31
2023-01-19T15:31:11.613Z,99421.86
2023-01-19T15:33:40.025Z,99422.30
2023-01-19T15:36:17.938Z,99422.64
2023-01-19T15:38:46.702Z,99422.98
2023-01-19T15:41:18.142Z,99420.70
2023-01-19T15:43:48.078Z,99419.42
2023-01-19T15:46:16.016Z,99421.42
2023-01-19T15:48:45.110Z,99421.58
2023-01-19T15:51:14.022Z,99426.45
2023-01-19T15:53:42.383Z,99426.70
2023-01-19T15:56:29.814Z,99426.17
2023-01-19T15:58:59.383Z,99423.99
2023-01-19T16:01:32.354Z,99418.79
2023-01-19T16:04:01.482Z,99422.83
2023-01-19T16:06:29.986Z,99424.41
2023-01-19T16:09:01.031Z,99426.85
2023-01-19T16:11:30.665Z,99428.57
2023-01-19T16:13:59.203Z,99431.88
2023-01-19T16:16:27.742Z,99433.66
2023-01-19T16:18:55.430Z,99431.45
2023-01-19T16:21:23.494Z,99438.56
2023-01-19T16:23:51.243Z,99439.73
2023-01-19T16:26:27.684Z,99434.02
2023-01-19T16:29:02.781Z,99433.83
2023-01-19T16:31:30.449Z,99433.88
2023-01-19T16:33:57.865Z,99434.83
2023-01-19T16:36:32.572Z,99442.73
2023-01-19T16:39:01.264Z,99443.03
2023-01-19T16:41:29.002Z,99438.40
2023-01-19T16:43:57.088Z,99437.51
2023-01-19T16:46:30.140Z,99435.08
2023-01-19T16:49:04.609Z,99429.17
2023-01-19T16:51:32.262Z,99434.88
2023-01-19T16:53:59.825Z,99440.80
2023-01-19T16:56:27.376Z,99441.34
2023-01-19T16:58:55.517Z,99435.66
2023-01-19T17:01:23.625Z,99436.29
2023-01-19T17:03:51.222Z,99437.42
2023-01-19T17:06:22.776Z,99439.61
2023-01-19T17:08:50.992Z,99440.75
2023-01-19T17:11:26.803Z,99436.13
2023-01-19T17:14:00.087Z,99434.81
2023-01-19T17:16:28.418Z,99434.27
2023-01-19T17:18:56.960Z,99433.23
2023-01-19T17:21:24.304Z,99431.95
2023-01-19T17:23:53.300Z,99435.15
2023-01-19T17:26:20.881Z,99435.36
2023-01-19T17:28:48.588Z,99433.75
2023-01-19T17:31:18.600Z,99437.07
2023-01-19T17:33:47.310Z,99442.64
2023-01-19T17:36:16.629Z,99443.53
2023-01-19T17:38:44.208Z,99442.41
2023-01-19T17:41:35.358Z,99437.75
2023-01-19T17:44:03.609Z,99429.48
2023-01-19T17:46:34.620Z,99432.41
2023-01-19T17:49:04.202Z,99431.67
2023-01-19T17:51:32.089Z,99430.72
2023-01-19T17:53:59.603Z,99427.71
2023-01-19T17:56:29.332Z,99432.11
2023-01-19T17:58:57.604Z,99431.48
2023-01-19T18:01:30.077Z,99433.49
2023-01-19T22:08:22.354Z,99558.95
2023-01-19T22:10:50.573Z,99590.23
2023-01-19T22:13:18.112Z,99597.34
2023-01-19T22:15:45.712Z,99590.94
2023-01-19T22:18:13.373Z,99585.81
2023-01-19T22:20:40.785Z,99589.29
2023-01-19T22:23:08.249Z,99591.11
2023-01-19T22:25:35.689Z,99593.09
2023-01-19T22:28:03.188Z,99594.95
2023-01-19T22:30:30.904Z,99593.59
2023-01-19T22:32:58.476Z,99593.21
2023-01-19T22:35:26.033Z,99597.45
2023-01-19T22:37:53.484Z,99602.98
2023-01-19T22:40:21.051Z,99609.01
2023-01-19T22:42:48.788Z,99608.17
2023-01-19T22:45:16.505Z,99605.68
2023-01-19T22:47:44.492Z,99606.42
2023-01-19T22:50:12.180Z,99609.17
2023-01-19T22:52:39.730Z,99614.92
2023-01-19T22:55:07.274Z,99617.16
2023-01-19T22:57:36.991Z,99620.40
2023-01-19T23:00:07.308Z,99614.89
2023-01-19T23:02:34.837Z,99613.14
2023-01-19T23:05:02.283Z,99620.41
2023-01-19T23:07:29.836Z,99618.76
2023-01-19T23:09:57.477Z,99622.63
2023-01-19T23:12:24.981Z,99617.75
2023-01-19T23:14:52.596Z,99618.27
2023-01-19T23:17:20.294Z,99620.38
2023-01-19T23:19:47.774Z,99624.61
2023-01-19T23:22:15.217Z,99616.21
2023-01-19T23:24:42.646Z,99613.10
2023-01-19T23:27:12.208Z,99618.46
2023-01-19T23:29:39.658Z,99617.70
2023-01-19T23:32:07.079Z,99613.41
2023-01-19T23:34:34.433Z,99617.61
2023-01-19T23:37:01.875Z,99622.04
2023-01-19T23:39:29.442Z,99616.73
2023-01-19T23:41:56.941Z,99619.00
2023-01-19T23:44:24.462Z,99619.34
